Time;durP1;ratioP1;P1;durP2;ratioP2;P2;SDS_P1;SDS_P2;PMS_P1;PMS_P2;Temp;Humidity;BMP_temperature;BMP_pressure;BME280_temperature;BME280_humidity;BME280_pressure;Samples;Min_cycle;Max_cycle;Signal;HPM_P1;HPM_P2
2023/09/03 00:01:20;;;;;;;2.58;2.47;;;19.80;99.90;;;20.08;83.80;102520.63;5043841;28;20045;-78
2023/09/03 00:03:49;;;;;;;3.30;3.20;;;19.80;99.90;;;19.88;83.07;102513.81;5045607;28;20052;-78
2023/09/03 00:06:17;;;;;;;2.70;2.60;;;19.60;99.90;;;19.84;83.38;102507.59;5036457;28;20068;-77
2023/09/03 00:08:48;;;;;;;3.15;3.05;;;19.50;99.90;;;20.06;83.96;102505.44;5051384;28;20439;-77
2023/09/03 00:11:17;;;;;;;2.88;2.78;;;19.60;99.90;;;20.04;84.25;102507.25;5051667;28;20049;-78
2023/09/03 00:13:45;;;;;;;2.75;2.65;;;19.70;99.90;;;19.95;84.39;102508.31;5049621;28;20041;-78
2023/09/03 00:16:14;;;;;;;2.50;2.40;;;19.60;99.90;;;19.93;84.63;102511.94;5039458;28;20060;-77
2023/09/03 00:18:42;;;;;;;2.67;2.58;;;19.60;99.90;;;19.93;84.73;102518.19;5050277;28;20049;-79
2023/09/03 00:21:11;;;;;;;2.80;2.70;;;19.60;99.90;;;19.90;85.05;102523.59;5046082;28;20045;-77
2023/09/03 00:23:40;;;;;;;2.97;2.88;;;19.50;99.90;;;19.95;85.40;102520.84;5040595;28;20533;-77
2023/09/03 00:26:17;;;;;;;2.63;2.53;;;19.60;99.90;;;19.94;85.70;102517.28;5052202;28;20552;-77
2023/09/03 00:28:52;;;;;;;2.65;2.55;;;19.60;99.90;;;19.95;85.73;102511.00;5035129;28;20463;-79
2023/09/03 00:31:23;;;;;;;2.72;2.63;;;19.60;99.90;;;19.96;85.96;102509.19;5049053;28;20073;-77
2023/09/03 00:33:52;;;;;;;;;;;19.60;99.90;;;19.97;86.12;102525.31;5040070;28;20398;-77
2023/09/03 00:36:20;;;;;;;2.47;2.38;;;19.60;99.90;;;19.99;85.75;102493.94;5050660;28;20382;-78
2023/09/03 00:38:50;;;;;;;2.90;2.80;;;19.60;99.90;;;20.02;85.69;102493.84;5045210;28;20041;-78
2023/09/03 00:41:20;;;;;;;2.70;2.60;;;19.70;99.90;;;20.00;85.83;102498.38;5042447;28;20053;-78
2023/09/03 00:43:49;;;;;;;3.13;3.03;;;19.70;99.90;;;20.03;85.67;102498.34;5052429;28;20053;-77
2023/09/03 00:46:17;;;;;;;2.83;2.72;;;19.70;99.90;;;19.99;85.85;102498.41;5051311;28;20316;-76
2023/09/03 00:48:46;;;;;;;2.80;2.70;;;19.70;99.90;;;20.00;85.71;102489.41;5046033;28;20455;-78
2023/09/03 00:51:14;;;;;;;3.33;3.22;;;19.70;99.90;;;20.00;85.60;102489.41;5041173;28;20099;-78
2023/09/03 00:53:48;;;;;;;2.42;2.33;;;19.60;99.90;;;19.82;85.80;102490.66;5051768;28;20052;-76
2023/09/03 00:56:18;;;;;;;3.20;3.10;;;19.50;99.90;;;19.63;84.79;102492.72;5042880;28;20045;-78
2023/09/03 00:58:48;;;;;;;2.80;2.70;;;19.40;99.90;;;19.65;84.64;102490.00;5042993;28;20049;-77
2023/09/03 01:01:18;;;;;;;4.38;4.10;;;19.30;99.90;;;19.69;84.78;102486.34;5051586;28;20102;-78
2023/09/03 01:03:48;;;;;;;3.00;2.90;;;19.30;99.90;;;19.62;84.82;102487.38;5039479;28;20483;-77
2023/09/03 01:06:16;;;;;;;2.47;2.38;;;19.30;99.90;;;19.59;85.07;102482.03;5046255;28;20050;-77
2023/09/03 01:08:45;;;;;;;2.30;2.20;;;19.30;99.90;;;19.59;85.56;102479.34;5051040;28;20099;-78
2023/09/03 01:11:30;;;;;;;2.63;2.53;;;19.20;99.90;;;19.55;85.57;102469.59;5051517;28;20045;-77
2023/09/03 01:14:14;;;;;;;2.97;2.88;;;19.20;99.90;;;19.68;85.66;102472.06;5050609;28;20049;-77
2023/09/03 01:16:50;;;;;;;2.75;2.65;;;19.30;99.90;;;19.57;85.28;102474.00;5053104;28;20056;-77
2023/09/03 01:19:45;;;;;;;2.42;2.33;;;19.30;99.90;;;19.21;85.03;102460.22;5038555;28;20049;-78
2023/09/03 01:22:28;;;;;;;2.97;2.88;;;19.00;99.90;;;18.99;85.82;102431.97;5045124;28;20042;-77
2023/09/03 01:25:13;;;;;;;3.10;3.00;;;18.80;99.90;;;19.34;86.05;102488.69;5050939;28;20394;-78
2023/09/03 01:27:52;;;;;;;2.78;2.67;;;19.00;99.90;;;19.35;86.21;102486.00;5040895;28;20045;-78
2023/09/03 01:30:24;;;;;;;2.70;2.60;;;19.00;99.90;;;19.36;86.15;102489.56;5043418;28;20491;-76
2023/09/03 01:32:54;;;;;;;2.85;2.75;;;19.00;99.90;;;18.91;86.18;102415.97;5051465;28;20041;-74
2023/09/03 01:35:23;;;;;;;3.45;3.35;;;19.00;99.90;;;19.40;86.52;102488.59;5039090;28;20041;-78
2023/09/03 01:37:51;;;;;;;2.80;2.70;;;19.10;99.90;;;19.46;86.70;102481.34;5046485;28;20053;-78
2023/09/03 01:40:20;;;;;;;3.00;2.90;;;19.10;99.90;;;19.52;86.46;102488.44;5046014;28;20417;-77
2023/09/03 01:42:49;;;;;;;2.70;2.60;;;19.20;99.90;;;19.57;86.56;102497.28;5038652;28;20064;-76
2023/09/03 01:45:18;;;;;;;2.70;2.60;;;19.20;99.90;;;19.54;86.50;102511.66;5050053;28;20042;-78
2023/09/03 01:47:52;;;;;;;2.60;2.50;;;19.20;99.90;;;19.56;86.33;102522.38;5043525;28;20521;-79
2023/09/03 01:50:31;;;;;;;2.80;2.70;;;19.20;99.90;;;19.56;86.33;102534.00;5040952;28;20041;-78
2023/09/03 01:53:07;;;;;;;2.80;2.70;;;19.20;99.90;;;19.66;86.42;102542.81;5051278;28;20052;-77
2023/09/03 01:55:43;;;;;;;2.70;2.60;;;19.30;99.90;;;19.32;85.97;102477.97;5042991;28;20051;-77
2023/09/03 01:58:12;;;;;;;3.00;2.90;;;19.30;99.90;;;19.68;85.79;102546.38;5039691;28;20049;-77
2023/09/03 02:00:42;;;;;;;3.38;3.28;;;19.40;99.90;;;19.61;85.63;102533.91;5049513;28;20087;-77
2023/09/03 02:03:13;;;;;;;2.83;2.72;;;19.40;99.90;;;19.59;85.53;102525.91;5049937;28;20053;-78
2023/09/03 02:05:41;;;;;;;3.00;2.90;;;19.40;99.90;;;19.68;85.24;102535.63;5045097;28;20090;-77
2023/09/03 02:08:10;;;;;;;2.67;2.58;;;19.40;99.90;;;19.72;85.00;102538.22;5039801;28;20088;-78
2023/09/03 02:10:38;;;;;;;3.17;3.08;;;19.40;99.90;;;19.71;84.76;102536.47;5050689;28;20057;-78
2023/09/03 02:13:07;;;;;;;2.80;2.70;;;19.50;99.90;;;19.73;84.60;102545.38;5039800;28;20056;-78
2023/09/03 02:15:35;;;;;;;2.97;2.88;;;19.40;99.90;;;19.73;84.69;102537.31;5043460;28;20037;-78
2023/09/03 02:18:04;;;;;;;3.00;2.90;;;19.50;99.90;;;19.73;84.55;102528.38;5049137;28;20099;-78
2023/09/03 02:20:34;;;;;;;2.70;2.60;;;19.40;99.90;;;19.79;84.01;102520.22;5049249;28;20132;-77
2023/09/03 02:23:02;;;;;;;2.70;2.60;;;19.50;99.90;;;19.78;83.89;102526.53;5032231;28;20056;-77
2023/09/03 02:25:31;;;;;;;2.97;2.88;;;19.50;99.90;;;19.75;83.63;102523.88;5045054;28;20049;-77
2023/09/03 02:28:01;;;;;;;3.00;2.90;;;19.50;99.90;;;19.45;84.09;102521.66;5036015;28;20050;-78
2023/09/03 02:30:30;;;;;;;2.78;2.67;;;19.20;99.90;;;19.15;85.97;102517.56;5049620;28;20510;-77
2023/09/03 02:32:58;;;;;;;3.20;3.10;;;18.90;99.90;;;19.02;87.66;102523.09;5032732;28;20061;-77
2023/09/03 02:35:28;;;;;;;3.55;3.45;;;18.60;99.90;;;18.91;86.33;102521.44;5032084;28;20505;-78
2023/09/03 02:37:58;;;;;;;3.03;2.92;;;18.60;99.90;;;18.81;85.67;102522.44;5049735;28;20044;-78
2023/09/03 02:40:26;;;;;;;2.78;2.67;;;18.50;99.90;;;18.67;85.85;102521.75;5031907;28;20046;-78
2023/09/03 02:42:55;;;;;;;2.90;2.80;;;18.40;99.90;;;18.60;85.78;102503.94;5041682;28;20547;-77
2023/09/03 02:45:24;;;;;;;3.00;2.90;;;18.30;99.90;;;18.45;86.13;102501.41;5039158;28;20049;-78
2023/09/03 02:47:53;;;;;;;2.97;2.88;;;18.20;99.90;;;18.30;86.45;102496.19;5049626;28;20303;-78
2023/09/03 02:50:23;;;;;;;3.30;3.20;;;18.10;99.90;;;18.16;87.16;102490.06;5048124;28;20128;-78
2023/09/03 02:52:51;;;;;;;2.90;2.80;;;17.90;99.90;;;18.05;87.86;102481.25;5041455;28;20052;-78
2023/09/03 02:55:21;;;;;;;3.78;3.58;;;17.90;99.90;;;18.02;88.77;102495.56;5039638;28;20422;-77
2023/09/03 02:57:49;;;;;;;11.40;10.75;;;17.80;99.90;;;18.01;89.49;102490.22;5050242;28;20103;-77
2023/09/03 03:00:19;;;;;;;3.33;3.22;;;17.70;99.90;;;18.03;90.27;102494.69;5047671;28;20034;-77
2023/09/03 03:02:47;;;;;;;2.63;2.53;;;17.70;99.90;;;18.06;90.86;102491.06;5048728;28;20056;-77
2023/09/03 03:05:15;;;;;;;2.70;2.60;;;17.70;99.90;;;18.04;91.43;102501.78;5047307;28;20119;-77
2023/09/03 03:07:44;;;;;;;3.15;3.05;;;17.70;99.90;;;18.13;91.57;102508.88;5036624;28;20065;-78
2023/09/03 03:10:13;;;;;;;3.35;3.25;;;17.70;99.90;;;18.19;91.24;102514.19;5047427;28;20046;-78
2023/09/03 03:12:46;;;;;;;3.08;2.97;;;17.80;99.90;;;18.27;91.13;102511.41;5031892;28;20064;-78
2023/09/03 03:15:16;;;;;;;3.03;2.92;;;17.90;99.90;;;18.30;90.48;102517.63;5052124;28;20049;-77
2023/09/03 03:17:46;;;;;;;3.03;2.92;;;18.00;99.90;;;18.29;90.55;102531.91;5035711;28;20053;-77
2023/09/03 03:20:15;;;;;;;3.13;3.03;;;18.00;99.90;;;18.32;90.51;102547.06;5045454;28;20042;-77
2023/09/03 03:22:45;;;;;;;3.00;2.90;;;18.00;99.90;;;18.16;90.56;102532.03;5048592;28;20053;-77
2023/09/03 03:25:13;;;;;;;3.10;3.00;;;18.00;99.90;;;18.36;90.89;102548.81;5048975;28;20044;-77
2023/09/03 03:27:41;;;;;;;3.05;2.95;;;18.00;99.90;;;18.38;91.00;102539.00;5032438;28;20080;-77
2023/09/03 03:30:12;;;;;;;2.78;2.67;;;18.00;99.90;;;18.45;90.35;102538.94;5040185;28;20048;-78
2023/09/03 03:32:40;;;;;;;3.22;3.13;;;18.10;99.90;;;18.39;90.42;102546.13;5039248;28;20140;-77
2023/09/03 03:35:10;;;;;;;3.00;2.90;;;18.00;99.90;;;18.44;90.47;102541.66;5048975;28;20100;-77
2023/09/03 03:37:38;;;;;;;3.47;3.38;;;18.00;99.90;;;18.50;90.33;102531.75;5046850;28;20441;-77
2023/09/03 03:40:09;;;;;;;2.80;2.70;;;18.10;99.90;;;18.53;90.30;102538.84;5048230;28;20056;-78
2023/09/03 03:42:37;;;;;;;;;;;18.10;99.90;;;18.54;90.30;102530.78;5051921;28;20071;-79
2023/09/03 03:45:07;;;;;;;3.53;3.42;;;18.20;99.90;;;18.56;90.17;102536.16;5034979;28;19960;-78
2023/09/03 03:47:38;;;;;;;2.78;2.67;;;18.20;99.90;;;18.56;90.12;102542.38;5045797;28;20056;-78
2023/09/03 03:50:07;;;;;;;2.90;2.80;;;18.20;99.90;;;18.57;89.84;102545.97;5042783;28;20439;-78
2023/09/03 03:52:37;;;;;;;3.25;3.15;;;18.20;99.90;;;18.54;90.06;102544.19;5036479;28;20041;-78
2023/09/03 03:55:06;;;;;;;2.97;2.88;;;18.20;99.90;;;18.60;90.21;102548.63;5050483;28;20095;-78
2023/09/03 03:57:35;;;;;;;2.80;2.70;;;18.20;99.90;;;18.61;90.17;102555.75;5045978;28;20115;-77
2023/09/03 04:00:04;;;;;;;3.10;3.00;;;18.20;99.90;;;18.49;89.90;102535.31;5042305;28;20071;-78
2023/09/03 04:02:40;;;;;;;3.20;3.10;;;18.20;99.90;;;18.65;89.53;102550.34;5035905;28;20063;-78
2023/09/03 04:05:09;;;;;;;3.08;2.97;;;18.30;99.90;;;18.60;89.13;102529.88;5063600;28;20073;-78
2023/09/03 04:07:38;;;;;;;3.10;3.00;;;18.40;99.90;;;18.72;89.02;102549.38;5031113;28;20076;-78
2023/09/03 04:10:07;;;;;;;3.03;2.92;;;18.40;99.90;;;18.73;89.27;102548.50;5044706;28;20037;-78
2023/09/03 04:12:35;;;;;;;3.45;3.35;;;18.40;99.90;;;18.62;89.20;102530.75;5034770;28;20045;-78
2023/09/03 04:15:05;;;;;;;3.08;2.97;;;18.40;99.90;;;18.80;88.96;102546.59;5046269;28;20544;-79
2023/09/03 04:17:34;;;;;;;3.15;3.05;;;18.40;99.90;;;18.33;88.83;102437.19;5031607;28;20061;-78
2023/09/03 04:20:11;;;;;;;2.88;2.78;;;18.50;99.90;;;18.89;88.68;102531.28;5045963;28;20490;-78
2023/09/03 04:22:39;;;;;;;3.38;3.28;;;18.60;99.90;;;18.99;88.64;102537.44;5034732;28;20049;-78
2023/09/03 04:25:09;;;;;;;3.42;3.33;;;18.60;99.90;;;18.97;88.37;102538.38;5044822;28;20037;-78
2023/09/03 04:27:39;;;;;;;3.53;3.42;;;18.60;99.90;;;18.95;88.60;102543.72;5030997;28;20060;-78
2023/09/03 04:30:10;;;;;;;3.45;3.35;;;18.60;99.90;;;18.96;88.77;102529.44;5047683;28;20049;-77
2023/09/03 04:32:40;;;;;;;3.10;3.00;;;18.60;99.90;;;18.98;88.90;102541.03;5035944;28;20049;-78
2023/09/03 04:35:10;;;;;;;3.00;2.90;;;18.60;99.90;;;18.94;88.91;102547.34;5043144;28;20041;-77
2023/09/03 04:37:38;;;;;;;3.25;3.15;;;18.60;99.90;;;18.93;88.91;102554.50;5044362;28;20406;-78
2023/09/03 04:40:09;;;;;;;3.45;3.35;;;18.60;99.90;;;18.97;88.99;102554.47;5036064;28;20045;-77
2023/09/03 04:42:39;;;;;;;3.22;3.13;;;18.60;99.90;;;18.92;88.93;102568.81;5046123;28;20056;-77
2023/09/03 04:45:09;;;;;;;3.08;2.97;;;18.60;99.90;;;18.97;89.04;102566.06;5041211;28;20088;-77
2023/09/03 04:47:37;;;;;;;3.40;3.30;;;18.60;99.90;;;18.86;89.04;102555.47;5039141;28;20053;-76
2023/09/03 04:50:08;;;;;;;3.47;3.38;;;18.60;99.90;;;18.98;88.73;102573.22;5048779;28;20056;-78
2023/09/03 04:52:44;;;;;;;2.85;2.75;;;18.60;99.90;;;18.79;89.00;102551.06;5049845;28;20145;-78
2023/09/03 04:55:14;;;;;;;3.53;3.42;;;18.60;99.90;;;18.90;88.97;102576.00;5054409;28;20053;-78
2023/09/03 04:57:43;;;;;;;3.40;3.30;;;18.50;99.90;;;18.86;89.02;102571.56;5039781;28;20132;-78
2023/09/03 05:00:12;;;;;;;3.17;3.08;;;18.50;99.90;;;18.71;89.01;102577.09;5052069;28;20072;-78
2023/09/03 05:02:41;;;;;;;3.17;3.08;;;18.40;99.90;;;18.61;89.18;102580.78;5042716;28;20048;-78
2023/09/03 05:05:11;;;;;;;3.40;3.30;;;18.20;99.90;;;18.56;89.93;102587.09;5042428;28;20041;-77
2023/09/03 05:07:40;;;;;;;3.28;3.17;;;18.20;99.90;;;18.56;90.34;102585.28;5049859;28;20076;-77
2023/09/03 05:10:10;;;;;;;2.83;2.73;;;18.20;99.90;;;18.45;90.46;102576.47;5053665;28;20155;-77
2023/09/03 05:12:40;;;;;;;3.30;3.20;;;18.10;99.90;;;18.30;90.71;102573.91;5045630;28;20045;-78
2023/09/03 05:15:12;;;;;;;3.13;3.03;;;18.00;99.90;;;18.28;90.43;102570.34;5050353;28;20103;-77
2023/09/03 05:17:42;;;;;;;3.28;3.17;;;18.00;99.90;;;18.20;89.58;102580.22;5052509;28;20505;-78
2023/09/03 05:20:11;;;;;;;3.17;3.08;;;17.90;99.90;;;18.04;89.38;102574.09;5040564;28;20057;-78
2023/09/03 05:22:41;;;;;;;3.35;3.25;;;17.70;99.90;;;17.96;89.36;102572.41;5043929;28;20041;-78
2023/09/03 05:25:10;;;;;;;5.30;4.95;;;17.60;99.90;;;17.89;89.86;102576.00;5033283;28;20061;-76
2023/09/03 05:27:39;;;;;;;3.20;3.10;;;17.50;99.90;;;17.79;90.75;102576.97;5051278;28;20055;-78
2023/09/03 05:30:10;;;;;;;3.17;3.08;;;17.50;99.90;;;17.98;91.08;102584.00;5050251;28;20055;-78
2023/09/03 05:32:39;;;;;;;2.88;2.78;;;17.60;99.90;;;18.02;91.16;102591.09;5045518;28;20072;-77
2023/09/03 05:35:09;;;;;;;2.78;2.67;;;17.70;99.90;;;18.08;91.22;102591.03;5038292;28;20054;-77
2023/09/03 05:37:38;;;;;;;3.00;2.90;;;17.70;99.90;;;18.16;91.40;102594.56;5052759;28;20053;-77
2023/09/03 05:40:10;;;;;;;2.85;2.75;;;17.70;99.90;;;18.21;91.21;102599.88;5046218;28;20506;-77
2023/09/03 05:42:39;;;;;;;3.25;3.15;;;17.80;99.90;;;18.26;91.28;102590.91;5049750;28;20089;-76
2023/09/03 05:45:09;;;;;;;2.78;2.67;;;17.90;99.90;;;18.34;90.88;102605.13;5053525;28;20111;-77
2023/09/03 05:47:38;;;;;;;3.10;3.00;;;18.00;99.90;;;18.29;91.05;102580.13;5050471;28;20053;-77
2023/09/03 05:50:08;;;;;;;3.50;3.40;;;18.10;99.90;;;18.49;91.07;102623.78;5033812;28;20045;-77
2023/09/03 05:52:37;;;;;;;3.33;3.22;;;18.10;99.90;;;18.56;90.86;102616.59;5033420;28;20140;-75
2023/09/03 05:55:08;;;;;;;2.60;2.50;;;18.20;99.90;;;18.44;90.93;102620.25;5049761;28;20052;-77
2023/09/03 05:57:38;;;;;;;3.30;3.20;;;18.20;99.90;;;18.59;91.07;102613.84;5039152;28;20485;-77
2023/09/03 06:00:08;;;;;;;3.13;3.03;;;18.30;99.90;;;18.66;90.96;102629.00;5044218;28;20075;-77
2023/09/03 06:02:37;;;;;;;3.08;2.97;;;18.30;99.90;;;18.70;90.73;102630.72;5049473;28;20828;-77
2023/09/03 06:05:07;;;;;;;3.15;3.05;;;18.40;99.90;;;18.80;90.63;102646.72;5051097;28;20131;-76
2023/09/03 06:07:36;;;;;;;2.95;2.85;;;18.50;99.90;;;18.89;90.60;102653.78;5041041;28;20045;-77
2023/09/03 06:10:07;;;;;;;3.20;3.10;;;18.60;99.90;;;18.97;90.63;102656.41;5044016;28;20131;-76
2023/09/03 06:12:35;;;;;;;2.60;2.50;;;18.60;99.90;;;19.00;90.29;102651.88;5049002;28;20068;-76
2023/09/03 06:15:05;;;;;;;3.03;2.92;;;18.70;99.90;;;19.09;90.44;102661.59;5037709;28;20395;-75
2023/09/03 06:17:33;;;;;;;2.80;2.70;;;18.80;99.90;;;19.24;90.46;102677.56;5046973;28;20651;-76
2023/09/03 06:20:02;;;;;;;3.13;3.03;;;18.90;99.90;;;19.29;89.98;102678.38;5045350;28;20440;-76
2023/09/03 06:22:31;;;;;;;2.85;2.75;;;19.00;99.90;;;19.47;89.80;102683.59;5038713;28;20578;-76
2023/09/03 06:24:59;;;;;;;3.28;3.17;;;19.10;99.90;;;19.63;89.60;102687.84;5052802;28;20128;-77
2023/09/03 06:27:29;;;;;;;2.97;2.88;;;19.30;99.90;;;19.82;88.89;102692.09;5046677;28;20041;-77
2023/09/03 06:29:58;;;;;;;2.90;2.80;;;19.50;99.90;;;19.98;88.06;102699.00;5045588;28;20045;-76
2023/09/03 06:32:26;;;;;;;2.50;2.40;;;19.70;99.90;;;20.08;87.44;102700.66;5038032;28;20072;-76
2023/09/03 06:34:54;;;;;;;3.20;3.10;;;19.70;99.90;;;20.26;86.94;102691.47;5033479;28;20485;-76
2023/09/03 06:37:23;;;;;;;2.95;2.85;;;19.90;99.90;;;20.36;85.80;102691.28;5034015;28;20037;-76
2023/09/03 06:39:51;;;;;;;2.70;2.60;;;20.10;99.90;;;20.52;84.98;102686.56;5032873;28;20443;-76
2023/09/03 06:42:20;;;;;;;4.32;4.13;;;20.20;99.90;;;20.43;84.11;102663.41;5033271;28;20085;-76
2023/09/03 06:44:50;;;;;;;3.20;3.10;;;20.30;99.90;;;20.59;83.27;102693.63;5037575;28;20140;-76
2023/09/03 06:47:18;;;;;;;8.17;4.43;;;20.30;99.90;;;20.41;83.21;102699.31;5043907;28;20053;-76
2023/09/03 06:49:46;;;;;;;3.30;3.20;;;20.10;99.90;;;20.01;85.43;102695.41;5045768;28;20052;-75
2023/09/03 06:52:15;;;;;;;3.15;3.05;;;19.70;99.90;;;19.81;85.75;102695.66;5036091;28;20095;-77
2023/09/03 06:54:43;;;;;;;3.63;3.42;;;19.50;99.90;;;20.11;86.03;102695.22;5048829;28;20046;-76
2023/09/03 06:57:12;;;;;;;3.10;2.90;;;19.70;99.90;;;19.80;85.51;102697.47;5042174;28;20048;-75
2023/09/03 06:59:58;;;;;;;2.80;2.70;;;19.50;99.90;;;19.93;86.15;102708.03;5037850;28;20113;-76
2023/09/03 07:02:27;;;;;;;3.30;3.20;;;19.50;99.90;;;20.01;85.34;102703.47;5052111;28;20548;-76
2023/09/03 07:04:59;;;;;;;3.00;2.90;;;19.70;99.90;;;19.93;86.36;102703.56;5045804;28;20045;-79
2023/09/03 07:07:28;;;;;;;3.25;3.15;;;19.50;99.90;;;19.96;85.49;102702.63;5045339;28;20049;-74
2023/09/03 07:09:57;;;;;;;2.67;2.58;;;19.50;99.90;;;19.96;85.66;102702.63;5035691;28;20056;-76
2023/09/03 07:12:25;;;;;;;2.83;2.72;;;19.50;99.90;;;20.02;85.25;102694.47;5048639;28;20049;-82
2023/09/03 07:14:53;;;;;;;2.97;2.88;;;19.60;99.90;;;20.11;85.30;102692.53;5039567;28;20053;-79
2023/09/03 07:17:23;;;;;;;2.72;2.63;;;19.70;99.90;;;20.24;85.27;102704.06;5040265;28;20067;-82
2023/09/03 07:19:59;;;;;;;2.88;2.78;;;19.80;99.90;;;20.35;84.33;102697.59;5048162;28;20558;-82
2023/09/03 07:22:30;;;;;;;2.95;2.85;;;20.00;99.90;;;20.47;83.98;102705.47;5038723;28;20094;-81
2023/09/03 07:25:01;;;;;;;2.72;2.63;;;20.10;99.90;;;20.69;83.31;102708.72;5042251;28;20047;-76
2023/09/03 07:27:31;;;;;;;3.67;3.47;;;20.30;99.90;;;20.40;83.86;102713.69;5048322;28;20041;-74
2023/09/03 07:30:01;;;;;;;2.60;2.50;;;20.10;99.90;;;20.21;84.20;102720.25;5035481;28;20045;-80
2023/09/03 07:32:31;;;;;;;2.70;2.60;;;19.80;99.90;;;20.33;85.41;102720.94;5044321;28;20168;-71
2023/09/03 07:35:00;;;;;;;2.85;2.75;;;19.90;99.90;;;20.78;84.33;102723.78;5044517;28;20064;-71
2023/09/03 07:37:29;;;;;;;2.95;2.85;;;20.30;99.90;;;20.97;83.85;102736.00;5035444;28;20045;-71
2023/09/03 07:39:57;;;;;;;2.80;2.70;;;20.50;99.90;;;21.09;82.54;102727.75;5032265;28;20081;-71
2023/09/03 07:42:26;;;;;;;3.00;2.90;;;20.70;99.90;;;21.11;81.47;102739.38;5032202;28;20061;-67
2023/09/03 07:44:54;;;;;;;3.50;3.30;;;20.80;99.90;;;21.35;81.82;102742.50;5032916;28;20053;-70
2023/09/03 07:47:24;;;;;;;3.25;3.15;;;21.00;99.90;;;21.33;80.24;102741.66;5032252;28;20049;-70
2023/09/03 07:49:54;;;;;;;2.75;2.65;;;21.10;99.90;;;21.15;79.36;102730.34;5032264;28;20052;-69
2023/09/03 07:52:22;;;;;;;3.13;3.03;;;20.90;99.90;;;21.14;80.63;102734.84;5032320;28;20041;-70
2023/09/03 07:54:51;;;;;;;3.80;3.60;;;20.80;99.90;;;21.18;81.40;102735.66;5032734;28;20033;-73
2023/09/03 07:57:19;;;;;;;3.88;3.67;;;20.80;99.90;;;21.28;79.90;102740.88;5032582;28;20096;-72
2023/09/03 07:59:47;;;;;;;3.92;3.63;;;20.90;99.90;;;21.21;79.45;102739.22;5032167;28;20045;-71
2023/09/03 08:02:17;;;;;;;3.13;3.03;;;20.90;99.90;;;21.35;79.97;102738.97;5032523;28;20069;-69
2023/09/03 08:04:47;;;;;;;3.40;3.22;;;20.90;99.90;;;21.41;79.52;102738.81;5032713;28;20045;-72
2023/09/03 08:07:18;;;;;;;2.67;2.58;;;21.10;99.90;;;21.70;79.72;102744.50;5032503;28;20088;-70
2023/09/03 08:09:46;;;;;;;;;;;21.30;99.90;;;21.35;79.27;102738.97;5032800;28;20049;-70
2023/09/03 08:12:15;;;;;;;2.95;2.85;;;21.10;99.90;;;21.58;79.49;102744.78;5032351;28;19927;-69
2023/09/03 08:14:43;;;;;;;3.65;3.42;;;21.20;99.90;;;22.02;78.57;102746.56;5032539;28;20053;-67
2023/09/03 08:17:12;;;;;;;3.22;3.05;;;21.60;99.90;;;22.05;77.06;102744.69;5032021;28;20115;-67
2023/09/03 08:19:40;;;;;;;3.03;2.92;;;21.70;99.90;;;22.26;76.99;102744.19;5032172;28;20045;-70
2023/09/03 08:22:08;;;;;;;2.42;2.33;;;21.90;99.90;;;22.22;77.78;102734.41;5031215;28;20132;-67
2023/09/03 08:24:38;;;;;;;2.40;2.30;;;22.00;99.90;;;22.65;76.10;102753.22;5032320;28;20041;-73
2023/09/03 08:27:07;;;;;;;9.95;5.82;;;22.30;99.90;;;22.81;75.75;102749.22;5033713;28;20034;-72
2023/09/03 08:29:35;;;;;;;3.45;3.25;;;22.50;99.90;;;22.65;74.97;102742.41;5036303;28;20041;-75
2023/09/03 08:32:04;;;;;;;2.92;2.83;;;22.50;99.90;;;22.50;75.20;102745.44;5036109;28;20095;-79
2023/09/03 08:34:32;;;;;;;2.45;2.35;;;22.30;99.90;;;22.51;75.67;102746.34;5035994;28;20042;-78
2023/09/03 08:37:01;;;;;;;3.20;3.10;;;22.20;99.90;;;22.07;75.50;102648.50;5036002;28;20042;-73
2023/09/03 08:39:29;;;;;;;2.80;2.70;;;22.30;99.90;;;22.75;75.46;102737.69;5035943;28;20049;-71
2023/09/03 08:41:59;;;;;;;2.63;2.53;;;22.40;99.90;;;23.00;74.85;102742.41;5033759;28;20124;-73
2023/09/03 08:44:36;;;;;;;4.40;4.10;;;22.60;99.90;;;23.35;75.05;102744.22;5035224;28;20097;-72
2023/09/03 08:47:11;;;;;;;3.45;3.25;;;23.00;99.90;;;23.56;72.64;102750.81;5039158;28;20050;-75
2023/09/03 08:49:40;;;;;;;2.50;2.40;;;23.30;99.90;;;23.32;72.55;102752.41;5045537;28;20053;-70
2023/09/03 08:52:10;;;;;;;4.22;3.65;;;23.10;99.90;;;23.63;70.82;102757.84;5048197;28;20069;-70
2023/09/03 08:54:39;;;;;;;3.22;3.13;;;23.40;99.90;;;23.25;71.64;102748.94;5039666;28;20113;-70
2023/09/03 08:57:09;;;;;;;2.42;2.33;;;23.00;99.90;;;23.05;73.26;102745.88;5048969;28;20044;-69
2023/09/03 08:59:38;;;;;;;2.88;2.78;;;22.70;99.90;;;23.23;73.20;102747.19;5046205;28;20072;-70
2023/09/03 09:02:13;;;;;;;2.25;2.15;;;22.80;99.90;;;23.32;73.14;102747.00;5039112;28;20103;-69
2023/09/03 09:04:42;;;;;;;3.60;3.17;;;22.90;99.90;;;23.22;72.25;102743.63;5034020;28;20068;-65
2023/09/03 09:07:11;;;;;;;2.80;2.70;;;22.90;99.90;;;23.15;72.41;102742.00;5035426;28;20049;-68
2023/09/03 09:09:40;;;;;;;10.55;9.90;;;22.80;99.90;;;23.55;72.71;102743.66;5035201;28;20123;-67
2023/09/03 09:12:18;;;;;;;2.40;2.30;;;23.10;99.90;;;23.77;72.26;102710.56;5034981;28;20053;-69
2023/09/03 09:14:54;;;;;;;2.13;2.03;;;23.60;99.90;;;23.70;70.72;102746.81;5035917;28;20099;-69
2023/09/03 09:17:22;;;;;;;2.80;2.60;;;23.50;99.90;;;23.76;70.57;102743.94;5035793;28;20053;-68
2023/09/03 09:19:51;;;;;;;2.35;2.25;;;23.50;99.90;;;23.84;71.53;102744.59;5045460;28;20057;-69
2023/09/03 09:22:20;;;;;;;2.60;2.50;;;23.50;99.90;;;23.91;70.65;102746.19;5035215;28;20049;-70
2023/09/03 09:24:51;;;;;;;2.00;1.90;;;23.60;99.90;;;24.35;70.93;102739.44;5035393;28;20045;-69
2023/09/03 09:27:22;;;;;;;18.73;2.42;;;24.00;99.90;;;24.48;67.85;102739.94;5033990;28;20589;-71
2023/09/03 09:29:50;;;;;;;2.28;2.17;;;24.30;99.90;;;24.25;66.70;102748.78;5035055;28;20052;-72
2023/09/03 09:32:21;;;;;;;2.17;2.08;;;24.00;99.90;;;24.23;67.51;102744.34;5033885;28;20478;-70
2023/09/03 09:34:50;;;;;;;2.13;2.03;;;24.00;99.90;;;23.96;67.79;102729.84;5035001;28;20045;-71
2023/09/03 09:37:18;;;;;;;2.10;2.00;;;23.70;99.90;;;24.30;66.49;102732.41;5034800;28;20046;-71
2023/09/03 09:39:48;;;;;;;12.60;2.95;;;24.00;99.90;;;24.36;66.27;102738.50;5034919;28;20053;-72
2023/09/03 09:42:19;;;;;;;2.22;2.13;;;24.10;99.90;;;24.00;67.41;102737.78;5049312;28;20049;-67
2023/09/03 09:44:59;;;;;;;3.25;2.75;;;23.80;99.90;;;23.52;67.09;102741.91;5033036;28;20080;-67
2023/09/03 09:47:28;;;;;;;2.15;2.05;;;23.30;99.90;;;23.48;66.98;102728.56;5049357;28;20069;-65
2023/09/03 09:49:56;;;;;;;2.42;2.33;;;23.20;99.90;;;23.55;66.90;102722.94;5037872;28;20041;-65
2023/09/03 09:52:36;;;;;;;2.55;2.45;;;23.20;99.90;;;23.71;67.74;102732.34;5047095;28;20052;-69
2023/09/03 09:55:05;;;;;;;2.53;2.42;;;23.30;99.90;;;23.83;67.38;102729.28;5047464;28;20045;-66
2023/09/03 09:57:35;;;;;;;2.67;2.57;;;23.40;99.90;;;23.80;65.48;102725.81;5038185;28;20042;-66
2023/09/03 10:00:05;;;;;;;2.38;2.28;;;23.50;99.90;;;23.79;66.22;102732.16;5049414;28;20342;-67
2023/09/03 10:02:37;;;;;;;2.22;2.13;;;23.40;99.90;;;24.13;64.58;102720.31;5043889;28;20449;-67
2023/09/03 10:05:11;;;;;;;2.60;2.50;;;23.70;99.90;;;24.38;64.66;102722.22;5040200;28;20509;-69
2023/09/03 10:07:41;;;;;;;2.65;2.55;;;24.10;99.90;;;24.68;63.99;102727.50;5050107;28;20069;-67
2023/09/03 10:10:10;;;;;;;2.10;2.00;;;24.40;99.90;;;24.45;61.73;102734.63;5041659;28;20052;-68
2023/09/03 10:12:38;;;;;;;2.08;1.98;;;24.30;99.90;;;24.22;62.90;102737.16;5042551;28;20120;-68
2023/09/03 10:15:12;;;;;;;2.70;2.60;;;24.00;99.90;;;24.26;63.29;102728.91;5049390;28;20482;-66
2023/09/03 10:17:42;;;;;;;2.10;2.00;;;24.00;99.90;;;24.23;59.23;102711.91;5036618;28;20041;-67
2023/09/03 10:20:15;;;;;;;;;;;24.00;99.90;;;24.39;58.27;102749.22;5045798;28;20099;-67
2023/09/03 10:22:46;;;;;;;2.53;2.42;;;24.10;99.90;;;24.42;60.29;102721.19;5047563;28;19951;-87
2023/09/03 10:25:16;;;;;;;;;;;24.20;99.90;;;24.07;57.76;102723.19;5038161;28;20048;-85